createdAt,value
2022-07-30T00:01:57.883Z,18.00
2022-07-30T00:05:02.812Z,18.20
2022-07-30T00:08:06.520Z,18.10
2022-07-30T00:11:11.980Z,18.10
2022-07-30T00:14:15.450Z,18.10
2022-07-30T00:17:18.958Z,18.10
2022-07-30T00:20:27.879Z,18.10
2022-07-30T00:23:32.299Z,18.00
2022-07-30T00:26:35.939Z,18.10
2022-07-30T00:29:39.310Z,18.10
2022-07-30T00:32:48.756Z,18.10
2022-07-30T00:35:54.365Z,18.00
2022-07-30T00:38:58.451Z,18.00
2022-07-30T00:42:04.159Z,18.00
2022-07-30T00:45:08.749Z,18.00
2022-07-30T00:48:13.570Z,18.10
2022-07-30T00:51:18.462Z,18.10
2022-07-30T00:54:22.647Z,18.00
2022-07-30T00:57:26.167Z,18.00
2022-07-30T01:03:52.692Z,18.10
2022-07-30T01:06:58.682Z,18.00
2022-07-30T01:10:02.247Z,18.00
2022-07-30T01:13:05.996Z,17.90
2022-07-30T01:16:09.502Z,18.00
2022-07-30T01:24:13.130Z,17.80
2022-07-30T01:27:20.024Z,17.80
2022-07-30T01:30:26.467Z,17.80
2022-07-30T01:33:31.015Z,17.70
2022-07-30T01:36:35.996Z,17.70
2022-07-30T01:39:40.736Z,17.60
2022-07-30T01:42:48.041Z,17.60
2022-07-30T01:45:54.639Z,17.50
2022-07-30T01:49:00.127Z,17.50
2022-07-30T01:52:08.436Z,17.40
2022-07-30T01:55:17.604Z,17.40
2022-07-30T01:58:25.904Z,17.40
2022-07-30T02:01:31.714Z,17.40
2022-07-30T02:04:37.132Z,17.40
2022-07-30T02:07:46.981Z,17.30
2022-07-30T02:10:54.749Z,17.20
2022-07-30T02:13:59.578Z,17.20
2022-07-30T02:17:04.675Z,17.20
2022-07-30T02:20:10.599Z,17.20
2022-07-30T02:23:17.215Z,17.20
2022-07-30T02:26:24.282Z,17.20
2022-07-30T02:29:34.580Z,17.20
2022-07-30T02:32:41.425Z,17.20
2022-07-30T02:35:44.878Z,17.30
2022-07-30T02:38:51.456Z,17.30
2022-07-30T02:41:58.527Z,17.30
2022-07-30T02:45:04.080Z,17.30
2022-07-30T02:48:10.346Z,17.30
2022-07-30T02:51:18.118Z,17.30
2022-07-30T02:54:23.451Z,17.30
2022-07-30T02:57:27.567Z,17.30
2022-07-30T03:00:33.127Z,17.30
2022-07-30T03:03:37.695Z,17.30
2022-07-30T03:06:42.869Z,17.30
2022-07-30T03:09:51.375Z,17.30
2022-07-30T03:12:59.246Z,17.40
2022-07-30T03:16:07.604Z,17.40
2022-07-30T03:19:14.465Z,17.40
2022-07-30T03:22:20.213Z,17.40
2022-07-30T03:25:27.769Z,17.30
2022-07-30T03:28:33.242Z,17.30
2022-07-30T03:31:39.757Z,17.20
2022-07-30T03:34:44.547Z,17.20
2022-07-30T03:37:50.696Z,17.20
2022-07-30T03:40:55.372Z,17.20
2022-07-30T03:44:00.858Z,17.30
2022-07-30T03:47:07.521Z,17.30
2022-07-30T03:50:17.199Z,17.20
2022-07-30T03:53:24.018Z,17.20
2022-07-30T03:56:53.620Z,17.20
2022-07-30T04:00:18.250Z,17.20
2022-07-30T04:03:28.604Z,17.20
2022-07-30T04:06:39.635Z,17.20
2022-07-30T04:09:42.967Z,17.20
2022-07-30T04:13:15.816Z,17.30
2022-07-30T04:16:39.935Z,17.30
2022-07-30T04:19:53.233Z,17.30
2022-07-30T04:22:58.522Z,17.40
2022-07-30T04:26:03.187Z,17.40
2022-07-30T04:29:09.256Z,17.40
2022-07-30T04:32:17.476Z,17.50
2022-07-30T04:35:51.271Z,17.50
2022-07-30T04:39:13.315Z,17.60
2022-07-30T04:42:16.817Z,17.70
2022-07-30T04:45:25.863Z,17.80
2022-07-30T04:48:34.645Z,17.70
2022-07-30T04:51:47.188Z,17.70
2022-07-30T04:54:54.403Z,17.70
2022-07-30T04:57:59.051Z,17.80
2022-07-30T05:01:04.919Z,17.80
2022-07-30T05:04:10.797Z,17.70
2022-07-30T05:07:15.791Z,17.80
2022-07-30T05:10:19.885Z,17.90
2022-07-30T05:13:23.597Z,17.90
2022-07-30T05:16:38.014Z,17.90
2022-07-30T05:19:41.825Z,17.90
2022-07-30T05:22:50.907Z,17.90
2022-07-30T05:25:58.589Z,17.90
2022-07-30T05:29:08.172Z,17.90
2022-07-30T05:32:29.319Z,18.00
2022-07-30T05:35:32.684Z,18.10
2022-07-30T05:38:37.707Z,18.10
2022-07-30T05:41:59.888Z,18.30
2022-07-30T05:45:13.004Z,18.50
2022-07-30T05:48:17.740Z,18.60
2022-07-30T05:51:22.127Z,18.60
2022-07-30T05:54:27.049Z,18.70
2022-07-30T05:57:48.683Z,18.70
2022-07-30T06:00:52.913Z,18.90
2022-07-30T06:03:58.088Z,19.10
2022-07-30T06:07:23.661Z,19.20
2022-07-30T06:10:31.076Z,19.20
2022-07-30T06:13:35.026Z,19.10
2022-07-30T06:16:38.461Z,19.20
2022-07-30T06:19:42.124Z,19.40
2022-07-30T06:22:45.584Z,19.20
2022-07-30T06:25:58.458Z,19.40
2022-07-30T06:29:01.905Z,19.50
2022-07-30T06:32:07.770Z,19.60
2022-07-30T06:35:12.081Z,19.80
2022-07-30T06:38:16.203Z,19.90
2022-07-30T06:41:31.733Z,19.80
2022-07-30T06:44:35.633Z,19.90
2022-07-30T06:47:59.410Z,19.80
2022-07-30T06:51:03.689Z,19.80
2022-07-30T06:54:07.105Z,19.90
2022-07-30T06:57:14.555Z,20.10
2022-07-30T07:00:19.202Z,20.10
2022-07-30T07:03:22.886Z,20.10
2022-07-30T07:06:26.325Z,20.00
2022-07-30T07:09:29.696Z,20.10
2022-07-30T07:12:52.776Z,20.00
2022-07-30T07:15:58.301Z,20.20
2022-07-30T07:19:03.459Z,20.00
2022-07-30T07:22:07.971Z,19.90
2022-07-30T07:25:14.122Z,20.00
2022-07-30T07:28:19.633Z,19.80
2022-07-30T07:32:07.070Z,19.80
2022-07-30T07:34:47.443Z,20.20
2022-07-30T07:37:51.426Z,20.30
2022-07-30T07:41:01.990Z,20.40
2022-07-30T07:44:07.958Z,20.50
2022-07-30T07:47:12.134Z,20.80
2022-07-30T07:50:21.566Z,21.00
2022-07-30T07:53:24.863Z,21.50
2022-07-30T07:56:28.683Z,21.60
2022-07-30T07:59:40.019Z,21.50
2022-07-30T08:02:47.030Z,21.80
2022-07-30T08:06:01.023Z,22.10
2022-07-30T08:09:24.512Z,22.50
2022-07-30T08:12:50.777Z,22.70
2022-07-30T08:16:22.369Z,22.90
2022-07-30T08:19:46.659Z,23.10
2022-07-30T08:22:55.620Z,23.50
2022-07-30T08:26:02.493Z,23.40
2022-07-30T08:29:06.513Z,23.10
2022-07-30T08:32:12.003Z,23.50
2022-07-30T08:35:17.072Z,23.80
2022-07-30T08:38:20.547Z,23.40
2022-07-30T08:41:25.275Z,23.50
2022-07-30T08:44:31.268Z,23.30
2022-07-30T08:47:37.800Z,23.50
2022-07-30T08:50:56.554Z,23.70
2022-07-30T08:54:20.628Z,23.80
2022-07-30T08:57:24.453Z,23.30
2022-07-30T09:00:28.457Z,23.50
2022-07-30T09:03:33.945Z,23.20
2022-07-30T09:06:40.903Z,23.00
2022-07-30T09:09:46.681Z,22.90
2022-07-30T09:12:50.581Z,22.90
2022-07-30T09:15:56.303Z,22.70
2022-07-30T09:19:13.371Z,22.40
2022-07-30T09:22:17.328Z,22.50
2022-07-30T09:25:47.916Z,22.60
2022-07-30T09:29:21.227Z,22.60
2022-07-30T09:32:51.098Z,22.40
2022-07-30T09:36:16.447Z,22.30
2022-07-30T09:39:59.134Z,22.20
2022-07-30T09:43:29.905Z,22.00
2022-07-30T09:46:47.969Z,21.60
2022-07-30T09:50:07.856Z,21.30
2022-07-30T09:53:12.609Z,21.50
2022-07-30T09:56:26.909Z,21.60
2022-07-30T09:59:35.022Z,21.50
2022-07-30T10:02:39.453Z,21.60
2022-07-30T10:06:18.380Z,21.40
2022-07-30T10:09:30.088Z,21.50
2022-07-30T10:12:34.345Z,21.30
2022-07-30T10:15:38.380Z,21.30
2022-07-30T10:18:43.882Z,21.50
2022-07-30T10:22:07.186Z,21.40
2022-07-30T10:25:35.405Z,21.50
2022-07-30T10:28:58.410Z,21.60
2022-07-30T10:32:03.224Z,21.70
2022-07-30T10:35:12.708Z,21.80
2022-07-30T10:38:41.359Z,21.80
2022-07-30T10:42:06.922Z,21.80
2022-07-30T10:45:32.212Z,21.80
2022-07-30T10:48:51.944Z,22.00
2022-07-30T10:53:24.544Z,22.00
2022-07-30T11:02:08.449Z,20.60
2022-07-30T11:22:51.155Z,22.00
2022-07-30T11:36:12.316Z,22.00
2022-07-30T11:44:47.237Z,22.50
2022-07-30T11:53:02.390Z,22.70
2022-07-30T11:57:04.796Z,23.70
2022-07-30T12:05:02.529Z,24.40
2022-07-30T12:26:27.409Z,26.10
2022-07-30T12:29:32.151Z,26.80
2022-07-30T12:32:35.546Z,27.10
2022-07-30T12:35:46.574Z,27.10
2022-07-30T12:38:52.462Z,26.90
2022-07-30T12:41:57.906Z,27.00
2022-07-30T12:45:01.247Z,26.70
2022-07-30T12:48:11.006Z,26.60
2022-07-30T12:51:15.959Z,26.50
2022-07-30T12:54:20.889Z,26.20
2022-07-30T12:58:27.639Z,26.20
2022-07-30T13:02:20.710Z,25.80
2022-07-30T13:06:35.908Z,25.60
2022-07-30T13:10:52.948Z,25.70
2022-07-30T13:14:26.631Z,25.70
2022-07-30T13:17:48.120Z,25.90
2022-07-30T13:20:54.454Z,26.10
2022-07-30T13:23:57.778Z,26.10
2022-07-30T13:27:16.743Z,26.40
2022-07-30T13:30:31.901Z,26.30
2022-07-30T13:44:36.182Z,27.90
2022-07-30T13:48:27.903Z,28.30
2022-07-30T13:52:15.501Z,27.90
2022-07-30T14:05:14.795Z,27.70
2022-07-30T14:11:37.425Z,26.40
2022-07-30T14:14:55.210Z,26.10
2022-07-30T14:18:31.837Z,25.60
2022-07-30T14:25:36.112Z,25.30
2022-07-30T14:28:52.708Z,24.90
2022-07-30T14:32:12.987Z,25.00
2022-07-30T14:39:11.629Z,24.40
2022-07-30T14:42:15.195Z,24.40
2022-07-30T14:45:24.500Z,24.40
2022-07-30T14:48:57.578Z,24.30
2022-07-30T14:52:14.355Z,24.30
2022-07-30T14:55:32.356Z,24.10
2022-07-30T14:58:35.936Z,24.00
2022-07-30T15:01:40.671Z,23.80
2022-07-30T15:04:51.996Z,23.90
2022-07-30T15:07:57.196Z,23.60
2022-07-30T15:11:09.972Z,23.80
2022-07-30T15:14:13.872Z,23.70
2022-07-30T15:17:17.555Z,23.70
2022-07-30T15:20:37.180Z,23.80
2022-07-30T15:23:50.395Z,23.20
2022-07-30T15:26:56.610Z,23.90
2022-07-30T15:30:01.000Z,23.90
2022-07-30T15:33:13.845Z,23.90
2022-07-30T15:36:17.375Z,23.50
2022-07-30T15:39:24.007Z,23.90
2022-07-30T15:42:31.418Z,23.90
2022-07-30T15:45:51.031Z,24.00
2022-07-30T15:49:05.925Z,24.20
2022-07-30T15:52:14.381Z,24.40
2022-07-30T15:55:22.847Z,24.60
2022-07-30T15:58:43.434Z,24.50
2022-07-30T16:06:34.682Z,24.70
2022-07-30T16:09:46.148Z,24.50
2022-07-30T16:13:04.153Z,24.60
2022-07-30T16:16:13.231Z,24.60
2022-07-30T16:19:35.050Z,24.50
2022-07-30T16:22:40.098Z,24.40
2022-07-30T16:26:14.213Z,24.50
2022-07-30T16:29:31.355Z,24.40
2022-07-30T16:32:44.275Z,24.20
2022-07-30T16:35:49.360Z,24.20
2022-07-30T16:38:55.277Z,24.30
2022-07-30T16:41:59.001Z,24.40
2022-07-30T16:45:02.778Z,24.70
2022-07-30T16:48:08.248Z,24.60
2022-07-30T16:51:12.171Z,24.80
2022-07-30T16:54:17.310Z,24.80
2022-07-30T16:57:22.334Z,24.80
2022-07-30T17:00:27.447Z,24.70
2022-07-30T17:03:32.829Z,24.40
2022-07-30T17:06:36.859Z,24.30
2022-07-30T17:09:41.560Z,24.30
2022-07-30T17:12:51.071Z,24.10
2022-07-30T17:16:00.389Z,23.90
2022-07-30T17:19:09.889Z,23.70
2022-07-30T17:22:18.873Z,23.70
2022-07-30T17:25:23.210Z,23.60
2022-07-30T17:28:27.301Z,23.50
2022-07-30T17:31:31.079Z,23.40
2022-07-30T17:34:36.186Z,23.40
2022-07-30T17:37:41.793Z,23.30
2022-07-30T17:40:45.968Z,23.30
2022-07-30T17:43:50.649Z,23.60
2022-07-30T17:46:55.184Z,21.50
2022-07-30T17:50:01.872Z,23.00
2022-07-30T17:53:09.149Z,22.90
2022-07-30T17:56:26.793Z,23.00
2022-07-30T17:59:37.602Z,24.40
2022-07-30T18:02:47.704Z,21.80
2022-07-30T18:05:58.096Z,22.20
2022-07-30T18:09:02.735Z,22.20
2022-07-30T18:12:09.307Z,21.80
2022-07-30T18:15:14.137Z,21.70
2022-07-30T18:18:18.949Z,21.30
2022-07-30T18:21:27.256Z,21.00
2022-07-30T18:24:34.490Z,20.80
2022-07-30T18:27:44.774Z,20.50
2022-07-30T18:30:49.168Z,20.30
2022-07-30T18:34:04.981Z,20.10
2022-07-30T18:37:11.456Z,20.00
2022-07-30T18:40:24.208Z,19.70
2022-07-30T18:43:58.228Z,19.70
2022-07-30T18:47:02.561Z,19.60
2022-07-30T18:50:07.400Z,18.80
2022-07-30T18:53:15.404Z,19.40
2022-07-30T18:56:22.524Z,19.40
2022-07-30T19:13:05.849Z,19.30
2022-07-30T19:16:11.040Z,19.20
2022-07-30T19:19:15.563Z,19.20
2022-07-30T19:22:29.513Z,19.20
2022-07-30T19:25:34.689Z,19.00
2022-07-30T19:28:41.711Z,19.20
2022-07-30T19:31:45.550Z,19.70
2022-07-30T19:34:49.465Z,19.00
2022-07-30T19:37:52.959Z,19.20
2022-07-30T19:40:58.488Z,19.20
2022-07-30T19:44:04.315Z,19.20
2022-07-30T19:47:12.740Z,19.10
2022-07-30T19:50:19.621Z,19.10
2022-07-30T19:53:34.441Z,19.10
2022-07-30T19:56:38.871Z,19.00
2022-07-30T20:00:00.008Z,18.90
2022-07-30T20:03:25.642Z,19.00
2022-07-30T20:06:30.221Z,19.00
2022-07-30T20:09:34.183Z,19.00
2022-07-30T20:12:38.262Z,19.00
2022-07-30T20:15:49.848Z,19.00
2022-07-30T20:18:57.497Z,19.00
2022-07-30T20:22:03.627Z,18.90
2022-07-30T20:25:09.143Z,18.90
2022-07-30T20:28:12.929Z,18.90
2022-07-30T20:31:18.590Z,18.90
2022-07-30T20:34:25.805Z,18.90
2022-07-30T20:37:29.929Z,18.90
2022-07-30T20:40:33.783Z,18.90
2022-07-30T20:43:52.243Z,18.90
2022-07-30T20:47:00.002Z,18.90
2022-07-30T20:53:37.212Z,18.90
2022-07-30T20:56:42.729Z,18.90
2022-07-30T20:59:47.584Z,18.90
2022-07-30T21:02:54.200Z,19.00
2022-07-30T21:05:58.103Z,18.90
2022-07-30T21:09:03.993Z,18.90
2022-07-30T21:12:08.567Z,18.90
2022-07-30T21:15:23.940Z,18.90
2022-07-30T21:18:30.571Z,18.90
2022-07-30T21:21:41.492Z,19.00
2022-07-30T21:24:45.778Z,19.00
2022-07-30T21:27:49.262Z,19.00
2022-07-30T21:30:54.000Z,18.90
2022-07-30T21:34:02.713Z,18.90
2022-07-30T21:37:06.383Z,18.90
2022-07-30T21:40:11.423Z,18.90
2022-07-30T21:43:14.929Z,18.90
2022-07-30T21:46:26.963Z,18.90
2022-07-30T21:49:31.881Z,18.80
2022-07-30T21:52:36.131Z,18.90
2022-07-30T21:55:53.253Z,18.90
2022-07-30T21:58:56.999Z,18.80
2022-07-30T22:02:00.728Z,18.80
2022-07-30T22:05:06.389Z,18.80
2022-07-30T22:08:13.152Z,18.80
2022-07-30T22:11:19.064Z,18.80
2022-07-30T22:14:22.674Z,18.90
2022-07-30T22:17:36.792Z,18.80
2022-07-30T22:20:42.080Z,18.90
2022-07-30T22:23:54.471Z,18.90
2022-07-30T22:27:10.857Z,18.90
2022-07-30T22:30:18.669Z,18.80
2022-07-30T22:33:23.512Z,18.80
2022-07-30T22:36:31.250Z,18.80
2022-07-30T22:39:50.702Z,18.80
2022-07-30T22:42:55.774Z,18.70
2022-07-30T22:45:59.256Z,18.70
2022-07-30T22:49:04.469Z,18.70
2022-07-30T22:52:19.527Z,18.60
2022-07-30T22:55:34.057Z,18.60
2022-07-30T22:58:38.954Z,18.60
2022-07-30T23:01:43.797Z,18.50
2022-07-30T23:04:47.306Z,18.50
2022-07-30T23:07:54.578Z,18.60
2022-07-30T23:10:59.751Z,18.60
2022-07-30T23:12:18.626Z,18.90
2022-07-30T23:14:03.663Z,18.60
2022-07-30T23:17:07.408Z,18.60
2022-07-30T23:20:13.810Z,18.60
2022-07-30T23:23:18.860Z,18.50
2022-07-30T23:26:22.262Z,18.50
2022-07-30T23:29:25.994Z,18.40
2022-07-30T23:32:30.213Z,18.40
2022-07-30T23:35:33.639Z,18.40
2022-07-30T23:38:39.055Z,18.40
2022-07-30T23:41:43.737Z,18.40
2022-07-30T23:44:47.205Z,18.40
2022-07-30T23:48:01.785Z,18.40
2022-07-30T23:51:07.275Z,18.50
2022-07-30T23:54:12.146Z,18.50
2022-07-30T23:57:15.485Z,18.50
